Time;durP1;ratioP1;P1;durP2;ratioP2;P2;SDS_P1;SDS_P2;PMS_P1;PMS_P2;Temp;Humidity;BMP_temperature;BMP_pressure;BME280_temperature;BME280_humidity;BME280_pressure;Samples;Min_cycle;Max_cycle;Signal;HPM_P1;HPM_P2
2022/02/26 00:03:47;;;;;;;4.20;3.00;;;6.30;35.70;;;;;;10445461;28;20251;-76
2022/02/26 00:08:50;;;;;;;3.90;2.70;;;6.30;36.50;;;;;;10440882;28;20236;-78
2022/02/26 00:13:54;;;;;;;3.30;2.90;;;6.20;35.70;;;;;;10443225;28;20244;-78
2022/02/26 00:18:58;;;;;;;3.47;2.83;;;6.20;36.00;;;;;;10447824;28;20239;-76
2022/02/26 00:24:01;;;;;;;5.47;3.47;;;6.20;36.30;;;;;;10443379;28;20225;-76
2022/02/26 00:29:05;;;;;;;3.63;2.90;;;6.20;36.30;;;;;;10443988;28;20236;-77
2022/02/26 00:34:09;;;;;;;3.57;3.00;;;6.20;36.30;;;;;;10446425;28;20589;-76
2022/02/26 00:39:12;;;;;;;3.73;2.83;;;6.20;36.70;;;;;;10444680;28;20229;-76
2022/02/26 00:44:16;;;;;;;3.33;3.03;;;6.20;36.20;;;;;;10445297;28;20259;-76
2022/02/26 00:54:41;;;;;;;4.33;3.13;;;6.30;37.20;;;;;;10446290;28;20223;-76
2022/02/26 00:59:44;;;;;;;4.30;3.40;;;6.30;36.40;;;;;;10444564;28;20221;-76
2022/02/26 01:04:49;;;;;;;5.10;3.63;;;6.30;36.30;;;;;;10442106;28;20221;-76
2022/02/26 01:09:53;;;;;;;3.47;3.07;;;6.30;37.20;;;;;;10448742;28;20719;-76
2022/02/26 01:14:56;;;;;;;4.03;3.20;;;6.30;36.20;;;;;;10440016;28;20216;-77
2022/02/26 01:20:01;;;;;;;4.67;3.50;;;6.30;36.30;;;;;;10442367;28;20231;-76
2022/02/26 01:25:09;;;;;;;4.20;3.20;;;6.30;37.40;;;;;;10451853;28;20221;-76
2022/02/26 01:30:13;;;;;;;5.47;3.60;;;6.20;36.70;;;;;;10447611;28;20231;-77
2022/02/26 01:35:17;;;;;;;3.50;3.03;;;6.20;37.40;;;;;;10446085;28;20236;-76
2022/02/26 01:40:21;;;;;;;5.53;3.30;;;6.20;36.90;;;;;;10450132;28;20306;-76
2022/02/26 01:45:26;;;;;;;3.90;3.10;;;6.20;36.60;;;;;;10451606;28;20248;-77
2022/02/26 01:50:31;;;;;;;3.87;3.13;;;6.20;36.40;;;;;;10453629;28;20239;-77
2022/02/26 01:55:34;;;;;;;4.07;3.17;;;6.20;36.70;;;;;;10452037;28;20228;-77
2022/02/26 02:00:38;;;;;;;5.27;3.10;;;6.30;36.60;;;;;;10454942;28;20303;-77
2022/02/26 02:05:45;;;;;;;5.33;3.17;;;6.30;36.40;;;;;;10452868;28;20217;-77
2022/02/26 02:10:51;;;;;;;4.93;3.40;;;6.30;36.80;;;;;;10452046;28;20232;-77
2022/02/26 02:15:55;;;;;;;3.57;3.20;;;6.30;37.10;;;;;;10452149;28;20516;-77
2022/02/26 02:20:59;;;;;;;3.47;2.97;;;6.30;36.60;;;;;;10455709;28;20233;-77
2022/02/26 02:26:04;;;;;;;3.27;2.80;;;6.30;36.70;;;;;;10446110;28;20685;-77
2022/02/26 02:31:09;;;;;;;3.20;2.90;;;6.30;36.70;;;;;;10453714;28;20236;-77
2022/02/26 02:36:12;;;;;;;3.77;2.93;;;6.30;36.50;;;;;;10448445;28;20237;-77
2022/02/26 02:41:17;;;;;;;3.10;2.80;;;6.20;36.40;;;;;;10450893;28;20717;-77
2022/02/26 02:46:20;;;;;;;3.93;2.47;;;6.20;36.70;;;;;;10447762;28;20225;-77
2022/02/26 02:51:23;;;;;;;4.20;2.90;;;6.20;36.20;;;;;;10450989;28;20256;-77
2022/02/26 02:56:28;;;;;;;4.73;2.93;;;6.30;36.40;;;;;;10446509;28;20235;-77
2022/02/26 03:01:31;;;;;;;3.73;2.40;;;6.20;36.40;;;;;;10448018;28;20227;-77
2022/02/26 03:06:35;;;;;;;3.03;2.40;;;6.30;36.20;;;;;;10445851;28;21035;-77
2022/02/26 03:11:40;;;;;;;4.13;2.57;;;6.30;36.00;;;;;;10445876;28;20247;-77
2022/02/26 03:16:43;;;;;;;4.27;2.40;;;6.40;36.50;;;;;;10450896;28;20600;-77
2022/02/26 03:21:46;;;;;;;3.77;2.43;;;6.40;36.20;;;;;;10450688;28;20216;-77
2022/02/26 03:26:56;;;;;;;4.40;2.33;;;6.40;36.10;;;;;;10448584;28;20245;-77
2022/02/26 03:31:59;;;;;;;2.77;2.20;;;6.40;36.40;;;;;;10448308;28;20575;-77
2022/02/26 03:37:08;;;;;;;4.60;2.50;;;6.40;36.20;;;;;;10446490;28;20236;-77
2022/02/26 03:42:13;;;;;;;4.27;2.60;;;6.40;36.20;;;;;;10444004;28;20311;-77
2022/02/26 03:47:16;;;;;;;2.57;2.20;;;6.30;36.60;;;;;;10451453;28;20229;-76
2022/02/26 03:52:20;;;;;;;4.33;2.40;;;6.20;36.50;;;;;;10446565;28;20589;-76
2022/02/26 03:57:25;;;;;;;2.43;2.23;;;6.10;36.80;;;;;;10448144;28;20233;-76
2022/02/26 04:02:28;;;;;;;4.63;2.60;;;6.10;37.20;;;;;;10444461;28;20574;-77
2022/02/26 04:07:32;;;;;;;5.10;2.90;;;6.00;36.90;;;;;;10442810;28;20229;-76
2022/02/26 04:12:37;;;;;;;3.50;2.50;;;6.00;36.90;;;;;;10447989;28;20217;-76
2022/02/26 04:17:40;;;;;;;4.03;2.50;;;6.00;37.40;;;;;;10446824;28;20233;-77
2022/02/26 04:22:43;;;;;;;3.30;2.53;;;6.00;37.00;;;;;;10446963;28;20231;-76
2022/02/26 04:27:48;;;;;;;4.57;2.50;;;6.00;37.20;;;;;;10443609;28;20224;-76
2022/02/26 04:32:51;;;;;;;4.00;2.63;;;6.00;37.40;;;;;;10442576;28;20231;-76
2022/02/26 04:37:54;;;;;;;2.80;2.20;;;6.00;37.00;;;;;;10443626;28;20616;-76
2022/02/26 04:42:59;;;;;;;3.37;2.37;;;6.00;36.90;;;;;;10444188;28;20227;-76
2022/02/26 04:48:02;;;;;;;2.67;2.23;;;6.00;37.50;;;;;;10447378;28;20213;-76
2022/02/26 04:53:05;;;;;;;3.53;2.40;;;6.00;36.90;;;;;;10445643;28;20217;-77
2022/02/26 04:58:10;;;;;;;3.53;2.70;;;6.00;36.90;;;;;;10444775;28;20248;-76
2022/02/26 05:03:13;;;;;;;2.80;2.57;;;6.00;37.60;;;;;;10449358;28;20232;-76
2022/02/26 05:08:16;;;;;;;2.80;2.40;;;6.00;37.00;;;;;;10447455;28;20239;-76
2022/02/26 05:13:21;;;;;;;4.03;2.67;;;6.00;37.60;;;;;;10457814;28;20814;-76
2022/02/26 05:18:24;;;;;;;3.70;2.70;;;6.00;37.60;;;;;;10455130;28;20244;-76
2022/02/26 05:23:27;;;;;;;3.53;2.67;;;6.00;37.60;;;;;;10453000;28;20229;-76
2022/02/26 05:28:32;;;;;;;3.40;2.63;;;5.90;37.70;;;;;;10448487;28;20606;-76
2022/02/26 05:33:36;;;;;;;3.60;2.60;;;5.90;37.60;;;;;;10454155;28;20260;-76
2022/02/26 05:38:40;;;;;;;4.73;3.00;;;5.90;37.50;;;;;;10450268;28;20228;-76
2022/02/26 05:43:46;;;;;;;3.77;3.00;;;5.90;37.50;;;;;;10453334;28;20256;-76
2022/02/26 05:48:50;;;;;;;3.30;2.73;;;5.90;37.50;;;;;;10453328;28;20225;-76
2022/02/26 05:53:53;;;;;;;3.13;2.53;;;5.90;37.50;;;;;;10452189;28;20308;-76
2022/02/26 05:58:57;;;;;;;3.60;2.73;;;6.00;37.60;;;;;;10451538;28;20840;-76
2022/02/26 06:04:01;;;;;;;5.60;2.73;;;6.00;37.60;;;;;;10453751;28;20232;-76
2022/02/26 06:09:04;;;;;;;6.70;3.57;;;6.00;37.60;;;;;;10452324;28;20224;-76
2022/02/26 06:14:08;;;;;;;4.53;3.50;;;6.10;37.60;;;;;;10454250;28;20736;-76
2022/02/26 06:19:12;;;;;;;7.57;5.00;;;6.10;37.60;;;;;;10443303;28;20233;-76
2022/02/26 06:24:15;;;;;;;5.63;4.20;;;6.00;37.20;;;;;;10450446;28;20727;-76
2022/02/26 06:29:19;;;;;;;4.67;3.40;;;6.10;37.50;;;;;;10450898;28;20811;-76
2022/02/26 06:34:23;;;;;;;5.57;3.50;;;6.00;37.60;;;;;;10452414;28;20255;-76
2022/02/26 06:39:26;;;;;;;5.90;3.70;;;5.90;37.50;;;;;;10447937;28;20885;-76
2022/02/26 06:44:31;;;;;;;4.13;3.40;;;6.00;37.60;;;;;;10444390;28;20224;-76
2022/02/26 06:49:35;;;;;;;4.20;3.27;;;5.90;37.50;;;;;;10445611;28;20999;-76
2022/02/26 06:54:38;;;;;;;4.77;3.77;;;5.90;37.50;;;;;;10449113;28;20252;-76
2022/02/26 07:00:00;;;;;;;4.60;3.43;;;5.80;37.80;;;;;;10446952;28;20221;-76
2022/02/26 07:05:04;;;;;;;4.03;3.33;;;5.70;38.10;;;;;;10452349;28;20597;-76
2022/02/26 07:10:11;;;;;;;5.23;3.40;;;5.70;37.90;;;;;;10447771;28;20249;-76
2022/02/26 07:15:15;;;;;;;4.67;3.50;;;5.70;37.90;;;;;;10446991;28;20232;-76
2022/02/26 07:20:19;;;;;;;4.03;3.40;;;5.70;38.20;;;;;;10436460;28;20243;-77
2022/02/26 07:25:24;;;;;;;6.60;4.33;;;5.70;38.00;;;;;;10444321;28;20232;-77
2022/02/26 07:30:29;;;;;;;5.77;3.80;;;5.70;38.50;;;;;;10447040;28;20300;-77
2022/02/26 07:35:32;;;;;;;4.33;3.80;;;5.80;38.50;;;;;;10443634;28;20605;-77
2022/02/26 07:40:36;;;;;;;3.93;3.30;;;5.80;38.00;;;;;;10439513;28;20733;-77
2022/02/26 07:45:40;;;;;;;6.40;3.70;;;5.80;38.00;;;;;;10446419;28;20221;-78
2022/02/26 07:50:44;;;;;;;5.57;3.53;;;5.80;38.40;;;;;;10438992;28;20248;-77
2022/02/26 07:55:47;;;;;;;6.17;3.60;;;5.90;37.70;;;;;;10442670;28;20256;-77
2022/02/26 08:00:52;;;;;;;6.03;3.50;;;5.90;38.00;;;;;;10439123;28;20223;-77
2022/02/26 08:05:55;;;;;;;7.03;3.70;;;6.00;38.10;;;;;;10438211;28;20705;-77
2022/02/26 08:10:58;;;;;;;4.20;3.40;;;6.10;37.70;;;;;;10441158;28;20220;-77
2022/02/26 08:16:03;;;;;;;5.90;3.60;;;6.10;37.80;;;;;;10437786;28;20240;-77
2022/02/26 08:21:07;;;;;;;4.50;3.40;;;6.20;37.80;;;;;;10444882;28;20225;-77
2022/02/26 08:26:10;;;;;;;6.17;3.70;;;6.20;37.80;;;;;;10436798;28;20236;-77
2022/02/26 08:31:15;;;;;;;4.27;3.60;;;6.30;37.90;;;;;;10437848;28;20704;-77
2022/02/26 08:36:18;;;;;;;16.00;9.13;;;6.40;37.90;;;;;;10439435;28;20233;-77
2022/02/26 08:41:24;;;;;;;11.87;7.40;;;6.40;37.90;;;;;;10437673;28;21075;-77
2022/02/26 08:46:28;;;;;;;9.23;5.77;;;6.50;38.00;;;;;;10441963;28;20587;-79
2022/02/26 08:51:32;;;;;;;11.43;5.47;;;6.50;38.00;;;;;;10449738;28;20217;-76
2022/02/26 08:56:35;;;;;;;7.20;3.47;;;6.60;37.60;;;;;;10455848;28;20229;-77
2022/02/26 09:01:40;;;;;;;11.20;4.90;;;6.60;37.60;;;;;;10452197;28;20223;-78
2022/02/26 09:06:44;;;;;;;10.57;5.30;;;6.60;37.70;;;;;;10453934;28;20296;-78
2022/02/26 09:11:48;;;;;;;8.37;5.60;;;6.60;37.30;;;;;;10458969;28;20247;-79
2022/02/26 09:16:52;;;;;;;8.30;4.90;;;6.60;37.20;;;;;;10457834;28;20236;-77
2022/02/26 09:21:56;;;;;;;9.40;4.87;;;6.60;37.30;;;;;;10456163;28;20372;-78
2022/02/26 09:27:00;;;;;;;6.17;5.03;;;6.60;37.20;;;;;;10456204;28;20296;-77
2022/02/26 09:32:05;;;;;;;5.27;3.77;;;6.60;37.10;;;;;;10454367;28;20312;-77
2022/02/26 09:37:08;;;;;;;8.13;3.50;;;6.60;37.10;;;;;;10455474;28;20229;-76
2022/02/26 09:42:11;;;;;;;5.13;2.50;;;6.60;36.90;;;;;;10454137;28;20227;-77
2022/02/26 09:47:16;;;;;;;7.07;2.20;;;6.70;36.50;;;;;;10453130;28;20271;-77
2022/02/26 09:52:19;;;;;;;5.17;1.70;;;6.80;35.10;;;;;;10455112;28;20236;-77
2022/02/26 09:57:26;;;;;;;5.63;1.80;;;6.90;35.40;;;;;;10448409;28;20232;-77
2022/02/26 10:02:33;;;;;;;5.53;1.63;;;6.90;34.80;;;;;;10449480;28;20227;-79
2022/02/26 10:07:39;;;;;;;3.73;1.70;;;7.00;34.20;;;;;;10456445;28;20229;-77
2022/02/26 10:12:44;;;;;;;7.43;3.90;;;7.00;33.90;;;;;;10469876;28;20588;-76
2022/02/26 10:18:02;;;;;;;3.40;1.50;;;7.00;33.90;;;;;;10482995;28;20228;-78
2022/02/26 10:23:05;;;;;;;6.03;2.47;;;7.10;33.20;;;;;;10489621;28;20241;-77
2022/02/26 10:28:12;;;;;;;2.63;1.47;;;7.00;33.20;;;;;;10456924;28;20239;-77
2022/02/26 10:33:20;;;;;;;3.33;1.60;;;7.00;32.90;;;;;;10453972;28;20225;-77
2022/02/26 10:38:27;;;;;;;3.57;1.47;;;7.00;33.00;;;;;;10448363;28;20236;-78
2022/02/26 10:43:46;;;;;;;5.03;1.40;;;7.00;32.90;;;;;;10447549;28;20658;-78
2022/02/26 10:48:52;;;;;;;5.30;1.53;;;7.00;32.30;;;;;;10455942;28;21156;-77
2022/02/26 10:53:56;;;;;;;5.17;1.40;;;7.00;32.50;;;;;;10449357;28;20227;-77
2022/02/26 10:58:59;;;;;;;3.70;1.90;;;7.10;33.00;;;;;;10456144;28;20229;-77
2022/02/26 11:04:04;;;;;;;3.17;1.33;;;7.10;32.80;;;;;;10448261;28;20217;-77
2022/02/26 11:09:08;;;;;;;5.80;1.60;;;7.20;32.60;;;;;;10451741;28;20855;-77
2022/02/26 11:14:15;;;;;;;5.83;1.60;;;7.20;32.50;;;;;;10449441;28;20320;-77
2022/02/26 11:19:21;;;;;;;3.37;1.20;;;7.30;32.70;;;;;;10450213;28;20233;-81
2022/02/26 11:24:24;;;;;;;4.27;1.70;;;7.40;32.30;;;;;;10453169;28;20591;-81
2022/02/26 11:29:28;;;;;;;2.40;1.30;;;7.50;32.70;;;;;;10452330;28;20224;-83
2022/02/26 11:34:36;;;;;;;5.50;2.33;;;7.60;32.30;;;;;;10449619;28;20296;-82
2022/02/26 11:39:41;;;;;;;4.53;1.60;;;7.70;31.10;;;;;;10449603;28;20221;-81
2022/02/26 11:44:46;;;;;;;4.30;2.00;;;7.70;31.10;;;;;;10449289;28;20221;-82
2022/02/26 11:49:59;;;;;;;3.30;1.30;;;7.70;31.10;;;;;;10448629;28;20232;-81
2022/02/26 11:55:02;;;;;;;4.80;1.70;;;7.70;30.20;;;;;;10454170;28;20772;-79
2022/02/26 12:00:10;;;;;;;3.23;1.40;;;7.80;32.50;;;;;;10453137;28;20735;-80
2022/02/26 12:05:24;;;;;;;4.43;1.40;;;8.00;31.80;;;;;;10447012;28;20312;-76
2022/02/26 12:10:28;;;;;;;4.30;1.37;;;8.20;33.00;;;;;;10456206;28;20224;-78
2022/02/26 12:15:35;;;;;;;3.40;1.50;;;8.40;31.60;;;;;;10468691;28;20227;-78
2022/02/26 12:20:41;;;;;;;5.67;1.67;;;8.50;32.00;;;;;;10459849;28;20239;-78
2022/02/26 12:25:45;;;;;;;3.73;1.70;;;8.70;31.10;;;;;;10490132;28;20406;-78
2022/02/26 12:30:53;;;;;;;9.73;1.80;;;8.70;30.80;;;;;;10469075;28;20283;-77
2022/02/26 12:36:10;;;;;;;6.37;1.57;;;8.70;30.10;;;;;;10448620;28;20232;-78
2022/02/26 12:41:28;;;;;;;4.50;1.63;;;8.70;29.60;;;;;;10448608;28;20232;-77
2022/02/26 12:46:34;;;;;;;7.90;1.80;;;8.70;29.60;;;;;;10484848;28;20684;-77
2022/02/26 12:51:41;;;;;;;3.17;1.70;;;8.70;30.60;;;;;;10489523;28;20228;-77
2022/02/26 12:56:45;;;;;;;5.53;2.00;;;8.70;30.60;;;;;;10489415;28;20255;-78
2022/02/26 13:01:49;;;;;;;4.53;1.50;;;8.70;30.50;;;;;;10490017;28;20310;-78
2022/02/26 13:06:55;;;;;;;5.80;2.67;;;8.70;30.80;;;;;;10490275;28;20352;-78
2022/02/26 13:12:00;;;;;;;4.03;1.90;;;8.80;31.00;;;;;;10457112;28;20229;-78
2022/02/26 13:17:04;;;;;;;3.80;1.87;;;8.80;31.20;;;;;;10448119;28;20231;-77
2022/02/26 13:22:09;;;;;;;3.17;1.83;;;8.90;30.60;;;;;;10413955;28;20240;-77
2022/02/26 13:27:14;;;;;;;3.23;1.57;;;9.00;30.40;;;;;;10475774;28;20232;-78
2022/02/26 13:32:20;;;;;;;4.43;1.87;;;9.00;30.60;;;;;;10478197;28;20224;-78
2022/02/26 13:37:27;;;;;;;2.40;1.50;;;9.00;30.20;;;;;;10459670;28;20300;-78
2022/02/26 13:42:33;;;;;;;4.50;1.90;;;9.00;30.20;;;;;;10472983;28;20307;-78
2022/02/26 13:47:37;;;;;;;6.50;2.10;;;9.10;30.30;;;;;;10473613;28;20780;-78
2022/02/26 13:52:44;;;;;;;4.67;2.03;;;9.10;29.90;;;;;;10470127;28;20221;-78
2022/02/26 13:57:49;;;;;;;4.17;1.90;;;9.00;29.70;;;;;;10489683;28;20232;-78
2022/02/26 14:03:00;;;;;;;5.73;1.80;;;9.00;30.00;;;;;;10469992;28;20220;-76
2022/02/26 14:08:07;;;;;;;4.73;1.83;;;9.00;32.10;;;;;;10452245;28;20221;-77
2022/02/26 14:13:13;;;;;;;2.93;1.37;;;9.10;30.70;;;;;;10454586;28;20240;-78
2022/02/26 14:18:21;;;;;;;4.00;1.70;;;9.20;30.50;;;;;;10458233;28;20247;-79
2022/02/26 14:23:26;;;;;;;5.07;2.00;;;9.20;30.00;;;;;;10457075;28;20225;-78
2022/02/26 14:28:29;;;;;;;4.37;1.90;;;9.20;30.30;;;;;;10463708;28;20232;-78
2022/02/26 14:33:33;;;;;;;4.53;1.67;;;9.30;30.30;;;;;;10449418;28;20235;-75
2022/02/26 14:38:37;;;;;;;4.30;1.70;;;9.20;30.30;;;;;;10439579;28;20310;-75
2022/02/26 14:43:41;;;;;;;5.57;1.60;;;9.20;30.10;;;;;;10445925;28;20224;-75
2022/02/26 14:48:44;;;;;;;3.00;1.40;;;9.20;30.30;;;;;;10447105;28;20772;-75
2022/02/26 14:53:48;;;;;;;5.77;1.60;;;9.20;30.60;;;;;;10446465;28;20913;-75
2022/02/26 14:58:51;;;;;;;3.60;1.60;;;9.20;30.30;;;;;;10442432;28;20230;-75
2022/02/26 15:03:55;;;;;;;4.30;1.57;;;9.20;30.60;;;;;;10445231;28;20216;-77
2022/02/26 15:09:00;;;;;;;2.23;1.27;;;9.20;30.60;;;;;;10442451;28;20712;-76
2022/02/26 15:14:03;;;;;;;4.10;1.60;;;9.30;30.50;;;;;;10453519;28;20575;-77
2022/02/26 15:19:07;;;;;;;3.47;1.70;;;9.30;30.30;;;;;;10455525;28;20235;-75
2022/02/26 15:24:12;;;;;;;4.73;2.90;;;9.30;30.10;;;;;;10448945;28;20231;-75
2022/02/26 15:29:15;;;;;;;3.43;1.70;;;9.30;30.10;;;;;;10442637;28;20228;-75
2022/02/26 15:34:20;;;;;;;2.87;1.70;;;9.30;30.50;;;;;;10445499;28;20852;-75
2022/02/26 15:39:25;;;;;;;5.33;1.70;;;9.30;31.60;;;;;;10443811;28;20251;-75
2022/02/26 15:44:28;;;;;;;4.90;1.50;;;9.40;30.60;;;;;;10440202;28;20220;-75
2022/02/26 15:49:32;;;;;;;5.53;2.03;;;9.40;30.30;;;;;;10445245;28;20251;-74
2022/02/26 15:54:36;;;;;;;2.33;1.50;;;9.40;30.20;;;;;;10445698;28;20336;-76
2022/02/26 15:59:41;;;;;;;3.97;1.90;;;9.30;30.10;;;;;;10443679;28;20608;-77
2022/02/26 16:04:44;;;;;;;5.93;2.20;;;9.30;30.20;;;;;;10451272;28;20228;-77
2022/02/26 16:09:49;;;;;;;4.27;2.10;;;9.30;30.20;;;;;;10451430;28;20430;-78
2022/02/26 16:14:53;;;;;;;5.00;2.37;;;9.20;30.00;;;;;;10451151;28;20232;-78
2022/02/26 16:19:56;;;;;;;5.27;2.67;;;9.20;30.50;;;;;;10451655;28;20236;-78
2022/02/26 16:25:01;;;;;;;5.30;2.30;;;9.20;30.60;;;;;;10450996;28;20229;-77
2022/02/26 16:30:06;;;;;;;4.27;2.10;;;9.20;30.50;;;;;;10450258;28;20570;-78
2022/02/26 16:35:11;;;;;;;3.70;2.00;;;9.20;30.50;;;;;;10450069;28;20225;-78
2022/02/26 16:40:15;;;;;;;5.03;2.17;;;9.20;30.50;;;;;;10450270;28;20232;-78
2022/02/26 16:45:18;;;;;;;5.03;2.20;;;9.10;30.70;;;;;;10449911;28;20236;-77
2022/02/26 16:50:22;;;;;;;4.57;2.00;;;9.10;30.70;;;;;;10448166;28;20271;-77
2022/02/26 16:55:26;;;;;;;4.50;2.20;;;9.10;30.70;;;;;;10447484;28;20225;-77
2022/02/26 17:00:30;;;;;;;4.77;2.07;;;9.10;30.60;;;;;;10447878;28;20300;-77
2022/02/26 17:05:33;;;;;;;3.63;1.87;;;9.10;30.70;;;;;;10447655;28;20570;-77
2022/02/26 17:10:37;;;;;;;4.57;1.70;;;9.10;30.80;;;;;;10455933;28;20229;-77
2022/02/26 17:15:44;;;;;;;7.80;4.27;;;9.00;30.60;;;;;;10455982;28;20229;-77
2022/02/26 17:20:48;;;;;;;4.27;1.97;;;9.00;30.90;;;;;;10454509;28;20228;-77
2022/02/26 17:25:53;;;;;;;6.60;3.00;;;9.00;30.90;;;;;;10455474;28;20287;-78
2022/02/26 17:30:57;;;;;;;5.50;4.30;;;8.90;30.90;;;;;;10455595;28;20627;-77
2022/02/26 17:36:00;;;;;;;4.37;2.87;;;8.90;31.00;;;;;;10452205;28;20278;-76
2022/02/26 17:41:05;;;;;;;3.63;2.77;;;8.90;31.10;;;;;;10449770;28;20327;-76
2022/02/26 17:52:35;;;;;;;4.17;2.40;;;8.90;30.90;;;;;;10439901;28;20218;-76
2022/02/26 17:57:39;;;;;;;4.43;2.20;;;8.80;31.20;;;;;;10447897;28;20233;-76
2022/02/26 18:02:43;;;;;;;4.53;2.77;;;8.80;31.20;;;;;;10447264;28;20225;-75
2022/02/26 18:07:46;;;;;;;4.93;2.50;;;8.80;31.20;;;;;;10443981;28;21112;-75
2022/02/26 18:12:51;;;;;;;4.07;2.73;;;8.80;31.10;;;;;;10449589;28;20257;-75
2022/02/26 18:17:54;;;;;;;10.33;5.47;;;8.80;31.20;;;;;;10444992;28;20308;-75
2022/02/26 18:22:57;;;;;;;7.43;4.70;;;8.80;31.40;;;;;;10450519;28;20217;-75
2022/02/26 18:28:02;;;;;;;8.73;5.67;;;8.80;31.50;;;;;;10444132;28;20308;-75
2022/02/26 18:33:05;;;;;;;8.27;5.80;;;8.70;31.50;;;;;;10442396;28;20829;-74
2022/02/26 18:38:08;;;;;;;10.07;4.43;;;8.80;31.40;;;;;;10440640;28;20234;-75
2022/02/26 18:43:14;;;;;;;7.47;3.80;;;8.70;31.10;;;;;;10445781;28;20717;-75
2022/02/26 18:48:17;;;;;;;6.87;4.03;;;8.70;31.10;;;;;;10444877;28;20229;-74
2022/02/26 18:53:20;;;;;;;9.47;7.27;;;8.60;31.10;;;;;;10443698;28;20217;-75
2022/02/26 18:58:25;;;;;;;11.77;9.00;;;8.50;31.30;;;;;;10440230;28;20313;-75
2022/02/26 19:03:29;;;;;;;31.07;21.80;;;8.50;31.50;;;;;;10438792;28;20235;-75
2022/02/26 19:08:32;;;;;;;26.90;19.40;;;8.50;31.60;;;;;;10441484;28;20739;-76
2022/02/26 19:13:37;;;;;;;22.37;16.10;;;8.40;31.60;;;;;;10449695;28;20601;-76
2022/02/26 19:18:40;;;;;;;17.87;13.87;;;8.40;31.80;;;;;;10449472;28;20228;-76
2022/02/26 19:23:43;;;;;;;16.80;13.00;;;8.40;31.80;;;;;;10449346;28;20235;-76
2022/02/26 19:28:48;;;;;;;14.57;9.93;;;8.40;31.90;;;;;;10445118;28;20221;-74
2022/02/26 19:33:51;;;;;;;9.47;4.70;;;8.40;31.80;;;;;;10438377;28;20613;-74
2022/02/26 19:38:54;;;;;;;212.93;180.10;;;8.20;31.60;;;;;;10434824;28;20221;-74
2022/02/26 19:43:59;;;;;;;48.77;34.27;;;8.00;31.70;;;;;;10436127;28;20735;-74
2022/02/26 19:49:02;;;;;;;22.80;14.90;;;7.90;32.20;;;;;;10435898;28;20726;-74
2022/02/26 19:54:05;;;;;;;13.43;8.87;;;7.90;32.20;;;;;;10438258;28;20279;-75
2022/02/26 19:59:11;;;;;;;10.13;6.67;;;7.80;32.40;;;;;;10438967;28;20237;-74
2022/02/26 20:04:17;;;;;;;8.00;6.10;;;7.70;32.40;;;;;;10441656;28;20316;-76
2022/02/26 20:09:20;;;;;;;8.57;5.60;;;7.70;32.20;;;;;;10442273;28;20239;-76
2022/02/26 20:14:25;;;;;;;12.20;8.63;;;7.60;32.00;;;;;;10440885;28;20229;-76
2022/02/26 20:19:28;;;;;;;11.97;8.13;;;7.50;32.20;;;;;;10441172;28;20224;-76
2022/02/26 20:24:31;;;;;;;15.47;10.60;;;7.40;32.20;;;;;;10443281;28;20317;-76
2022/02/26 20:29:38;;;;;;;11.60;8.13;;;7.40;32.40;;;;;;10439080;28;20271;-76
2022/02/26 20:35:05;;;;;;;7.17;4.70;;;7.30;32.40;;;;;;10425973;28;20232;-75
2022/02/26 20:40:09;;;;;;;6.37;4.17;;;7.30;32.50;;;;;;10423425;28;20217;-75
2022/02/26 20:45:14;;;;;;;7.10;3.77;;;7.30;32.30;;;;;;10435834;28;20232;-75
2022/02/26 20:50:18;;;;;;;5.90;4.17;;;7.30;32.30;;;;;;10438050;28;20228;-75
2022/02/26 20:55:21;;;;;;;6.27;3.97;;;7.20;32.10;;;;;;10436559;28;20221;-75
2022/02/26 21:00:25;;;;;;;5.00;3.43;;;7.10;32.00;;;;;;10439398;28;20383;-75
2022/02/26 21:05:29;;;;;;;5.63;3.47;;;7.10;32.10;;;;;;10439322;28;20240;-75
2022/02/26 21:10:33;;;;;;;4.90;3.37;;;7.00;32.00;;;;;;10439816;28;20240;-75
2022/02/26 21:15:38;;;;;;;4.73;3.53;;;7.00;31.90;;;;;;10437830;28;20236;-75
2022/02/26 21:20:42;;;;;;;5.60;4.10;;;6.90;31.90;;;;;;10440181;28;20224;-75
2022/02/26 21:25:45;;;;;;;8.03;4.40;;;6.80;31.90;;;;;;10436845;28;20767;-75
2022/02/26 21:30:50;;;;;;;7.30;3.83;;;6.70;32.10;;;;;;10440156;28;20233;-75
2022/02/26 21:35:53;;;;;;;5.57;3.33;;;6.60;32.00;;;;;;10438363;28;20228;-75
2022/02/26 21:40:56;;;;;;;5.40;3.60;;;6.60;32.00;;;;;;10439036;28;20777;-75
2022/02/26 21:46:01;;;;;;;4.23;3.60;;;6.60;32.00;;;;;;10439113;28;20233;-75
2022/02/26 21:51:05;;;;;;;4.57;3.70;;;6.50;32.00;;;;;;10439035;28;20250;-77
2022/02/26 21:56:09;;;;;;;5.90;4.07;;;6.30;32.00;;;;;;10439924;28;21617;-75
2022/02/26 22:01:15;;;;;;;4.33;3.50;;;6.30;32.30;;;;;;10437425;28;20245;-75
2022/02/26 22:06:20;;;;;;;6.20;4.23;;;6.30;32.40;;;;;;10438301;28;20236;-76
2022/02/26 22:11:23;;;;;;;9.40;6.17;;;6.20;32.30;;;;;;10438960;28;20228;-75
2022/02/26 22:16:28;;;;;;;9.97;5.60;;;6.20;32.10;;;;;;10438227;28;20240;-75
2022/02/26 22:21:31;;;;;;;8.47;4.83;;;6.20;32.40;;;;;;10438746;28;20233;-75
2022/02/26 22:26:38;;;;;;;9.20;4.83;;;6.20;32.40;;;;;;10438062;28;20237;-75
2022/02/26 22:31:42;;;;;;;6.07;4.50;;;6.10;32.50;;;;;;10438367;28;20259;-75
2022/02/26 22:36:46;;;;;;;11.47;7.63;;;6.10;32.50;;;;;;10435902;28;20697;-75
2022/02/26 22:41:49;;;;;;;9.33;7.93;;;6.00;32.50;;;;;;10445081;28;20247;-75
2022/02/26 22:46:54;;;;;;;10.07;7.77;;;6.00;32.60;;;;;;10441366;28;20229;-75
2022/02/26 22:51:58;;;;;;;13.53;8.70;;;6.00;32.70;;;;;;10446998;28;20283;-77
2022/02/26 22:57:01;;;;;;;10.57;7.80;;;5.90;32.50;;;;;;10452730;28;20225;-75
2022/02/26 23:07:27;;;;;;;9.23;6.97;;;5.80;32.70;;;;;;10445691;28;20259;-76
2022/02/26 23:12:30;;;;;;;9.83;6.23;;;5.70;32.60;;;;;;10409205;28;20682;-74
2022/02/26 23:17:35;;;;;;;9.07;6.73;;;5.80;32.70;;;;;;10408797;28;20228;-76
2022/02/26 23:22:38;;;;;;;9.17;7.00;;;5.70;32.80;;;;;;10408204;28;20705;-76
2022/02/26 23:27:41;;;;;;;10.37;7.33;;;5.60;33.20;;;;;;10408133;28;20641;-75
2022/02/26 23:32:46;;;;;;;7.93;6.17;;;5.60;32.80;;;;;;10408282;28;20229;-76
2022/02/26 23:37:49;;;;;;;7.93;5.73;;;5.50;32.80;;;;;;10404221;28;20233;-75
2022/02/26 23:42:53;;;;;;;6.23;4.90;;;5.50;32.70;;;;;;10408037;28;20225;-76
2022/02/26 23:47:57;;;;;;;6.33;4.60;;;5.50;32.70;;;;;;10408131;28;20233;-76
2022/02/26 23:53:01;;;;;;;7.50;5.40;;;5.50;32.90;;;;;;10407790;28;20238;-76
2022/02/26 23:58:04;;;;;;;7.97;5.57;;;5.40;32.40;;;;;;10406935;28;20225;-75
